メインページ
METAR-TAF:

METAR-TAF

空港 :

ロマン・トメトゥチェル国際空港

コロール, バベルダオブ島, パラオ

緯度: 07-22N, 経度: 134-32E, 海抜: 54m

現時点の気象観測

当レポートは1時間22分前の10:50(UTC)に作成
北/北東の風 3kt
気温 26°C
湿度 89%
気圧 1010 hPa
視程: 24.1km
高度1600ftの雲は散在している
高度12000ftの千切れ雲あり
高度30000ftの千切れ雲あり

METAR: PTRO 141050Z 03003KT 15SM SCT016 BKN120 BKN300 26/24 A2982

時間: 21:12 (12:12 UTC)

予報

当レポートは51分前の11:21(UTC)に作成
予報は14日の 12時(UTC)から 15日の 12時(UTC)まで有効
北東の風 6kt
視程: 10km
高度1600ftの雲は散在している
高度12000ftの雲は散在している

TAF: PTRO 141121Z 1412/1512 04006KT P6SM SCT016 SCT120

4,000以上の空港の気象観測と天気予報(METAR報とTAF報)

利用可能な観測所は地図上に黄色い丸と赤い丸で示す。

丸の上にカーソルを重ねると観測所名を参照できる。

次にクリックすると気象観測と天気予報を参照できる。

マップの切り替え:黒色「×」印の緑ボタンをクリックして拡大、「-」印の緑ボタンをクリックして縮小、緑色の三角印をクリックして隣りの地図に切り替え


METAR-TAF: